createdAt,value
2023-10-29T00:01:47.809Z,96717.23
2023-10-29T00:04:16.956Z,96711.17
2023-10-29T00:06:46.030Z,96708.17
2023-10-29T00:09:14.947Z,96713.70
2023-10-29T00:11:43.783Z,96712.49
2023-10-29T00:14:12.617Z,96716.15
2023-10-29T00:16:41.679Z,96712.83
2023-10-29T00:19:10.532Z,96708.42
2023-10-29T00:21:39.329Z,96708.15
2023-10-29T00:24:09.398Z,96702.88
2023-10-29T00:26:38.167Z,96688.67
2023-10-29T00:29:07.118Z,96698.23
2023-10-29T00:31:36.269Z,96704.89
2023-10-29T00:34:05.264Z,96697.91
2023-10-29T00:36:34.464Z,96679.67
2023-10-29T00:39:03.776Z,96671.91
2023-10-29T00:41:33.034Z,96678.14
2023-10-29T00:44:02.361Z,96681.59
2023-10-29T00:46:55.717Z,96668.32
2023-10-29T00:49:24.483Z,96686.98
2023-10-29T00:51:53.481Z,96684.02
2023-10-29T00:54:23.142Z,96677.30
2023-10-29T00:56:53.932Z,96697.75
2023-10-29T00:59:23.188Z,96699.52
2023-10-29T01:01:52.164Z,96705.71
2023-10-29T01:04:21.110Z,96702.98
2023-10-29T01:06:50.117Z,96700.93
2023-10-29T01:09:19.497Z,96705.51
2023-10-29T01:11:48.807Z,96704.88
2023-10-29T01:14:17.909Z,96703.25
2023-10-29T01:16:46.996Z,96698.41
2023-10-29T01:19:15.944Z,96702.58
2023-10-29T01:21:45.414Z,96700.71
2023-10-29T01:24:14.785Z,96695.56
2023-10-29T01:26:43.581Z,96687.33
2023-10-29T01:29:12.976Z,96675.48
2023-10-29T01:31:42.390Z,96682.46
2023-10-29T01:34:11.318Z,96678.94
2023-10-29T01:36:40.102Z,96677.92
2023-10-29T01:39:09.015Z,96670.58
2023-10-29T01:41:38.162Z,96669.16
2023-10-29T01:44:07.860Z,96663.10
2023-10-29T01:46:36.660Z,96645.66
2023-10-29T01:49:08.393Z,96624.87
2023-10-29T01:51:37.626Z,96617.73
2023-10-29T01:54:06.720Z,96617.05
2023-10-29T01:56:36.517Z,96620.73
2023-10-29T01:59:05.551Z,96617.73
2023-10-29T02:01:34.804Z,96615.99
2023-10-29T02:04:04.067Z,96620.73
2023-10-29T02:06:39.181Z,96629.86
2023-10-29T02:09:09.849Z,96629.34
2023-10-29T02:11:39.194Z,96620.51
2023-10-29T02:14:08.269Z,96598.58
2023-10-29T02:16:39.151Z,96590.27
2023-10-29T02:19:08.271Z,96574.88
2023-10-29T02:21:37.331Z,96571.36
2023-10-29T02:24:06.683Z,96572.42
2023-10-29T02:26:36.524Z,96584.61
2023-10-29T02:29:05.707Z,96586.48
2023-10-29T02:31:34.830Z,96597.70
2023-10-29T02:34:03.893Z,96642.29
2023-10-29T02:36:32.896Z,96646.02
2023-10-29T02:39:01.961Z,96644.50
2023-10-29T02:41:30.833Z,96636.05
2023-10-29T02:43:59.913Z,96635.92
2023-10-29T02:46:28.831Z,96629.90
2023-10-29T02:48:57.719Z,96629.38
2023-10-29T02:51:26.518Z,96628.88
2023-10-29T02:53:55.443Z,96620.73
2023-10-29T02:56:24.636Z,96607.40
2023-10-29T02:58:53.505Z,96587.08
2023-10-29T03:01:26.344Z,96566.95
2023-10-29T03:03:55.588Z,96585.04
2023-10-29T03:06:24.859Z,96596.66
2023-10-29T03:08:53.945Z,96598.32
2023-10-29T03:11:22.938Z,96599.99
2023-10-29T03:13:51.823Z,96602.77
2023-10-29T03:16:20.744Z,96591.67
2023-10-29T03:18:49.874Z,96605.30
2023-10-29T03:21:19.397Z,96597.45
2023-10-29T03:23:48.541Z,96599.00
2023-10-29T03:26:17.981Z,96599.56
2023-10-29T03:28:46.867Z,96607.71
2023-10-29T03:31:15.978Z,96608.66
2023-10-29T03:33:44.882Z,96601.05
2023-10-29T03:36:14.046Z,96599.57
2023-10-29T03:38:42.947Z,96586.60
2023-10-29T03:41:21.568Z,96600.29
2023-10-29T03:43:51.085Z,96605.20
2023-10-29T03:46:21.466Z,96603.11
2023-10-29T03:48:50.454Z,96603.20
2023-10-29T03:51:19.988Z,96612.47
2023-10-29T03:53:49.430Z,96608.54
2023-10-29T03:56:18.533Z,96604.45
2023-10-29T03:58:47.837Z,96599.21
2023-10-29T04:01:16.864Z,96603.07
2023-10-29T04:03:46.038Z,96596.34
2023-10-29T04:06:14.931Z,96588.89
2023-10-29T04:08:43.784Z,96595.14
2023-10-29T04:11:12.569Z,96603.52
2023-10-29T04:13:41.488Z,96603.30
2023-10-29T04:16:10.335Z,96604.16
2023-10-29T04:18:39.298Z,96598.33
2023-10-29T04:21:08.224Z,96606.08
2023-10-29T04:23:37.691Z,96607.68
2023-10-29T04:26:06.867Z,96605.82
2023-10-29T04:28:35.982Z,96608.79
2023-10-29T04:31:05.163Z,96599.88
2023-10-29T04:33:34.597Z,96595.20
2023-10-29T04:36:04.139Z,96604.65
2023-10-29T04:38:36.569Z,96609.72
2023-10-29T04:41:05.948Z,96610.66
2023-10-29T04:43:35.363Z,96613.57
2023-10-29T04:46:04.935Z,96615.27
2023-10-29T04:48:34.229Z,96620.33
2023-10-29T04:51:03.646Z,96617.02
2023-10-29T04:53:35.542Z,96620.20
2023-10-29T04:56:05.639Z,96622.23
2023-10-29T04:58:35.204Z,96623.92
2023-10-29T05:01:04.450Z,96628.82
2023-10-29T05:03:33.600Z,96624.20
2023-10-29T05:06:03.591Z,96623.91
2023-10-29T05:08:32.744Z,96624.31
2023-10-29T05:11:01.765Z,96629.33
2023-10-29T05:13:30.608Z,96629.50
2023-10-29T05:15:59.373Z,96627.36
2023-10-29T05:18:28.422Z,96618.53
2023-10-29T05:20:57.771Z,96618.05
2023-10-29T05:23:28.173Z,96619.87
2023-10-29T05:25:57.530Z,96614.92
2023-10-29T05:28:27.983Z,96618.57
2023-10-29T05:30:56.881Z,96608.42
2023-10-29T05:33:25.909Z,96610.48
2023-10-29T05:35:55.501Z,96614.39
2023-10-29T05:38:24.349Z,96614.40
2023-10-29T05:40:53.212Z,96622.98
2023-10-29T05:43:22.147Z,96627.10
2023-10-29T05:45:51.087Z,96626.52
2023-10-29T05:48:20.437Z,96635.19
2023-10-29T05:50:49.564Z,96637.20
2023-10-29T05:53:18.956Z,96637.96
2023-10-29T05:55:47.925Z,96627.60
2023-10-29T05:58:17.425Z,96631.98
2023-10-29T06:00:46.494Z,96632.13
2023-10-29T06:03:15.767Z,96631.87
2023-10-29T06:05:45.060Z,96639.89
2023-10-29T06:08:14.586Z,96646.95
2023-10-29T06:10:44.587Z,96640.51
2023-10-29T06:13:13.424Z,96642.38
2023-10-29T06:15:42.311Z,96642.59
2023-10-29T06:18:11.281Z,96643.89
2023-10-29T06:20:42.796Z,96644.49
2023-10-29T06:23:11.862Z,96654.63
2023-10-29T06:25:40.809Z,96647.52
2023-10-29T06:28:09.659Z,96627.13
2023-10-29T06:30:38.632Z,96614.54
2023-10-29T06:33:07.571Z,96603.77
2023-10-29T06:35:36.766Z,96581.55
2023-10-29T06:38:05.797Z,96561.69
2023-10-29T06:40:34.782Z,96552.50
2023-10-29T06:43:04.739Z,96537.34
2023-10-29T06:45:33.889Z,96575.73
2023-10-29T06:48:03.136Z,96606.69
2023-10-29T06:50:32.172Z,96622.27
2023-10-29T06:53:01.224Z,96621.20
2023-10-29T06:55:30.234Z,96628.59
2023-10-29T06:57:59.318Z,96634.67
2023-10-29T07:00:28.409Z,96634.00
2023-10-29T07:02:57.568Z,96629.77
2023-10-29T07:05:26.765Z,96615.90
2023-10-29T07:07:56.151Z,96618.14
2023-10-29T07:10:25.198Z,96627.29
2023-10-29T07:12:54.969Z,96623.41
2023-10-29T07:15:23.920Z,96625.02
2023-10-29T07:17:52.932Z,96622.52
2023-10-29T07:20:22.171Z,96628.52
2023-10-29T07:22:51.133Z,96628.52
2023-10-29T07:25:20.591Z,96636.91
2023-10-29T07:27:49.580Z,96632.11
2023-10-29T07:30:18.725Z,96643.83
2023-10-29T07:32:47.961Z,96648.95
2023-10-29T07:35:17.136Z,96625.30
2023-10-29T07:37:46.500Z,96623.57
2023-10-29T07:40:16.152Z,96626.04
2023-10-29T07:42:45.937Z,96634.53
2023-10-29T07:45:15.160Z,96644.11
2023-10-29T07:47:44.225Z,96625.42
2023-10-29T07:50:14.268Z,96632.73
2023-10-29T07:52:43.234Z,96625.74
2023-10-29T07:55:12.202Z,96612.50
2023-10-29T07:57:41.034Z,96622.58
2023-10-29T08:00:11.393Z,96622.60
2023-10-29T08:02:43.327Z,96608.34
2023-10-29T08:05:12.716Z,96593.05
2023-10-29T08:07:41.728Z,96579.28
2023-10-29T08:10:11.686Z,96570.23
2023-10-29T08:12:40.503Z,96587.34
2023-10-29T08:15:10.506Z,96597.96
2023-10-29T08:17:40.910Z,96611.89
2023-10-29T08:20:11.669Z,96620.27
2023-10-29T08:22:41.568Z,96622.62
2023-10-29T08:25:12.665Z,96632.63
2023-10-29T08:27:41.500Z,96634.45
2023-10-29T08:30:11.660Z,96635.36
2023-10-29T08:32:40.567Z,96632.95
2023-10-29T08:35:10.280Z,96645.45
2023-10-29T08:37:39.696Z,96660.97
2023-10-29T08:40:09.671Z,96663.53
2023-10-29T08:42:38.481Z,96659.48
2023-10-29T08:45:08.474Z,96657.77
2023-10-29T08:47:38.051Z,96660.59
2023-10-29T08:50:09.424Z,96663.77
2023-10-29T08:52:38.432Z,96669.19
2023-10-29T08:55:08.051Z,96672.34
2023-10-29T08:57:37.188Z,96680.02
2023-10-29T09:00:07.424Z,96700.02
2023-10-29T09:02:36.443Z,96709.36
2023-10-29T09:05:05.731Z,96713.35
2023-10-29T09:07:34.556Z,96714.14
2023-10-29T09:10:03.780Z,96709.39
2023-10-29T09:12:32.641Z,96709.76
2023-10-29T09:15:03.154Z,96714.01
2023-10-29T09:17:32.256Z,96725.11
2023-10-29T09:20:01.578Z,96718.13
2023-10-29T09:22:30.469Z,96712.05
2023-10-29T09:24:59.691Z,96711.27
2023-10-29T09:27:28.489Z,96714.86
2023-10-29T09:29:57.444Z,96707.75
2023-10-29T09:32:26.281Z,96711.39
2023-10-29T09:34:55.946Z,96709.96
2023-10-29T09:37:25.827Z,96711.02
2023-10-29T09:39:54.808Z,96701.28
2023-10-29T09:42:23.852Z,96708.98
2023-10-29T09:44:52.971Z,96691.29
2023-10-29T09:47:21.814Z,96687.84
2023-10-29T09:49:52.311Z,96678.34
2023-10-29T09:52:21.253Z,96679.02
2023-10-29T09:54:51.812Z,96682.73
2023-10-29T09:57:21.230Z,96700.17
2023-10-29T09:59:50.423Z,96717.95
2023-10-29T10:02:19.624Z,96728.39
2023-10-29T10:04:48.910Z,96729.77
2023-10-29T10:07:17.894Z,96729.48
2023-10-29T10:09:53.634Z,96724.92
2023-10-29T10:12:22.621Z,96720.91
2023-10-29T10:14:53.414Z,96708.33
2023-10-29T10:17:23.096Z,96722.04
2023-10-29T10:19:52.102Z,96732.43
2023-10-29T10:22:31.609Z,96728.91
2023-10-29T10:25:00.570Z,96723.90
2023-10-29T10:27:29.627Z,96710.67
2023-10-29T10:29:58.438Z,96710.85
2023-10-29T10:32:30.017Z,96708.86
2023-10-29T10:35:01.212Z,96709.48
2023-10-29T10:37:30.470Z,96718.64
2023-10-29T10:39:59.440Z,96710.75
2023-10-29T10:42:28.916Z,96706.07
2023-10-29T10:44:57.936Z,96709.40
2023-10-29T10:47:27.179Z,96713.12
2023-10-29T10:49:56.633Z,96704.14
2023-10-29T10:52:25.931Z,96704.27
2023-10-29T10:54:55.993Z,96705.48
2023-10-29T10:57:25.157Z,96697.59
2023-10-29T10:59:56.865Z,96690.39
2023-10-29T11:02:25.966Z,96699.20
2023-10-29T11:04:55.152Z,96704.73
2023-10-29T11:07:24.249Z,96696.13
2023-10-29T11:09:53.948Z,96691.65
2023-10-29T11:12:22.822Z,96689.77
2023-10-29T11:15:05.385Z,96682.88
2023-10-29T11:17:50.526Z,96677.13
2023-10-29T11:20:33.477Z,96679.79
2023-10-29T11:23:09.524Z,96678.08
2023-10-29T11:25:38.509Z,96684.60
2023-10-29T11:28:07.434Z,96696.39
2023-10-29T11:30:36.478Z,96697.83
2023-10-29T11:33:19.172Z,96687.29
2023-10-29T11:35:48.599Z,96677.58
2023-10-29T11:38:30.870Z,96683.33
2023-10-29T11:40:59.766Z,96692.56
2023-10-29T11:43:28.780Z,96702.39
2023-10-29T11:45:58.680Z,96708.39
2023-10-29T11:48:30.318Z,96716.91
2023-10-29T11:51:12.972Z,96718.77
2023-10-29T11:53:42.180Z,96707.23
2023-10-29T11:56:11.772Z,96706.52
2023-10-29T11:58:40.759Z,96700.63
2023-10-29T12:01:09.601Z,96690.39
2023-10-29T12:03:39.288Z,96693.80
2023-10-29T12:06:08.338Z,96680.77
2023-10-29T12:08:37.169Z,96669.43
2023-10-29T12:11:07.621Z,96651.70
2023-10-29T12:13:42.995Z,96660.25
2023-10-29T12:16:13.305Z,96657.52
2023-10-29T12:18:42.538Z,96653.40
2023-10-29T12:21:11.795Z,96654.55
2023-10-29T12:23:40.836Z,96661.20
2023-10-29T12:26:11.845Z,96660.63
2023-10-29T12:28:41.702Z,96656.55
2023-10-29T12:31:13.968Z,96676.20
2023-10-29T12:33:42.773Z,96672.17
2023-10-29T12:36:16.733Z,96667.67
2023-10-29T12:38:45.838Z,96678.71
2023-10-29T12:41:15.897Z,96676.30
2023-10-29T12:43:45.472Z,96676.33
2023-10-29T12:46:15.088Z,96670.23
2023-10-29T12:48:59.472Z,96665.89
2023-10-29T12:51:28.744Z,96667.63
2023-10-29T12:54:12.268Z,96663.59
2023-10-29T12:56:55.227Z,96670.30
2023-10-29T12:59:26.730Z,96668.77
2023-10-29T13:01:56.212Z,96663.59
2023-10-29T13:04:25.733Z,96670.20
2023-10-29T13:06:55.133Z,96661.81
2023-10-29T13:09:24.404Z,96661.91
2023-10-29T13:11:53.639Z,96648.73
2023-10-29T13:14:23.264Z,96656.61
2023-10-29T13:16:54.127Z,96649.80
2023-10-29T13:19:23.280Z,96642.52
2023-10-29T13:21:53.225Z,96655.11
2023-10-29T13:24:22.725Z,96645.70
2023-10-29T13:26:52.314Z,96649.47
2023-10-29T13:29:21.683Z,96653.92
2023-10-29T13:31:51.170Z,96654.05
2023-10-29T13:34:20.580Z,96649.36
2023-10-29T13:36:49.530Z,96638.83
2023-10-29T13:39:20.228Z,96628.67
2023-10-29T13:41:50.376Z,96628.62
2023-10-29T13:44:19.275Z,96628.23
2023-10-29T13:46:48.679Z,96633.78
2023-10-29T13:49:17.941Z,96640.22
2023-10-29T13:51:48.029Z,96631.98
2023-10-29T13:54:17.008Z,96629.81
2023-10-29T13:56:46.668Z,96625.43
2023-10-29T13:59:15.983Z,96624.74
2023-10-29T14:01:44.885Z,96632.55
2023-10-29T14:04:13.762Z,96633.70
2023-10-29T14:06:42.853Z,96646.05
2023-10-29T14:09:12.494Z,96639.34
2023-10-29T14:11:41.575Z,96635.04
2023-10-29T14:14:10.573Z,96635.86
2023-10-29T14:16:40.332Z,96630.62
2023-10-29T14:19:09.793Z,96627.54
2023-10-29T14:21:38.941Z,96619.73
2023-10-29T14:24:09.231Z,96615.86
2023-10-29T14:26:38.539Z,96606.94
2023-10-29T14:29:07.453Z,96609.58
2023-10-29T14:31:38.536Z,96613.69
2023-10-29T14:34:08.040Z,96615.84
2023-10-29T14:36:39.190Z,96611.28
2023-10-29T14:39:08.393Z,96592.37
2023-10-29T14:41:37.426Z,96592.45
2023-10-29T14:44:06.640Z,96601.26
2023-10-29T14:46:37.484Z,96610.17
2023-10-29T14:49:07.027Z,96602.00
2023-10-29T14:51:35.987Z,96606.96
2023-10-29T14:54:05.380Z,96608.21
2023-10-29T14:56:34.682Z,96616.43
2023-10-29T14:59:11.645Z,96613.06
2023-10-29T15:01:41.296Z,96615.21
2023-10-29T15:04:10.440Z,96612.72
2023-10-29T15:06:42.217Z,96609.20
2023-10-29T15:09:12.011Z,96610.56
2023-10-29T15:11:41.048Z,96613.75
2023-10-29T15:14:10.040Z,96615.79
2023-10-29T15:16:38.972Z,96623.76
2023-10-29T15:19:09.135Z,96629.90
2023-10-29T15:21:39.259Z,96632.02
2023-10-29T15:24:09.443Z,96659.20
2023-10-29T15:26:38.923Z,96663.17
2023-10-29T15:29:08.072Z,96659.28
2023-10-29T15:31:37.000Z,96659.19
2023-10-29T15:34:06.392Z,96648.36
2023-10-29T15:36:35.413Z,96663.89
2023-10-29T15:39:05.945Z,96671.20
2023-10-29T15:41:38.222Z,96687.17
2023-10-29T15:44:07.629Z,96698.97
2023-10-29T15:46:38.600Z,96711.63
2023-10-29T15:49:08.682Z,96715.42
2023-10-29T15:51:37.621Z,96728.01
2023-10-29T15:54:07.066Z,96731.31
2023-10-29T15:56:37.856Z,96704.98
2023-10-29T15:59:08.539Z,96681.92
2023-10-29T16:01:37.471Z,96672.58
2023-10-29T16:04:06.671Z,96686.30
2023-10-29T16:06:35.599Z,96689.33
2023-10-29T16:09:05.899Z,96694.20
2023-10-29T16:11:35.586Z,96698.35
2023-10-29T16:14:07.474Z,96716.55
2023-10-29T16:16:38.227Z,96718.42
2023-10-29T16:19:07.653Z,96714.45
2023-10-29T16:21:37.482Z,96714.78
2023-10-29T16:24:07.394Z,96714.80
2023-10-29T16:26:37.378Z,96708.45
2023-10-29T16:29:06.512Z,96708.62
2023-10-29T16:31:37.602Z,96705.84
2023-10-29T16:34:08.716Z,96719.46
2023-10-29T16:36:39.652Z,96737.17
2023-10-29T16:39:10.350Z,96748.48
2023-10-29T16:41:39.618Z,96746.22
2023-10-29T16:44:09.479Z,96745.70
2023-10-29T16:46:39.914Z,96751.46
2023-10-29T16:49:12.613Z,96758.98
2023-10-29T16:51:43.633Z,96752.26
2023-10-29T16:54:14.819Z,96749.55
2023-10-29T16:56:44.674Z,96756.16
2023-10-29T16:59:14.297Z,96760.72
2023-10-29T17:01:44.647Z,96756.94
2023-10-29T17:04:14.905Z,96744.45
2023-10-29T17:06:44.672Z,96746.16
2023-10-29T17:09:16.368Z,96736.52
2023-10-29T17:11:46.686Z,96734.73
2023-10-29T17:14:17.253Z,96730.36
2023-10-29T17:16:49.727Z,96718.72
2023-10-29T17:19:20.168Z,96700.38
2023-10-29T17:21:49.776Z,96702.10
2023-10-29T17:24:19.948Z,96723.20
2023-10-29T17:33:07.548Z,96731.16
2023-10-29T17:35:37.892Z,96733.98
2023-10-29T17:38:06.764Z,96739.64
2023-10-29T17:40:36.462Z,96750.29
2023-10-29T17:43:05.550Z,96768.01
2023-10-29T17:45:39.225Z,96770.65
2023-10-29T17:48:08.638Z,96772.48
2023-10-29T17:50:38.188Z,96778.77
2023-10-29T17:53:07.196Z,96784.41
2023-10-29T17:55:36.408Z,96782.14
2023-10-29T17:59:43.075Z,96792.41
2023-10-29T18:02:13.339Z,96791.81
2023-10-29T18:05:04.391Z,96790.73
2023-10-29T18:07:33.364Z,96792.29
2023-10-29T18:10:02.663Z,96798.31
2023-10-29T18:12:32.119Z,96794.29
2023-10-29T18:15:01.339Z,96801.12
2023-10-29T18:17:32.493Z,96804.05
2023-10-29T18:20:01.701Z,96812.15
2023-10-29T18:22:30.646Z,96819.26
2023-10-29T18:25:00.268Z,96816.40
2023-10-29T18:27:29.338Z,96821.92
2023-10-29T18:29:59.312Z,96830.30
2023-10-29T18:32:28.298Z,96827.56
2023-10-29T18:34:57.620Z,96827.91
2023-10-29T18:37:26.926Z,96822.20
2023-10-29T18:39:56.452Z,96824.10
2023-10-29T18:42:25.960Z,96832.21
2023-10-29T18:44:55.063Z,96833.27
2023-10-29T18:47:24.875Z,96832.95
2023-10-29T18:49:53.823Z,96826.35
2023-10-29T18:52:22.771Z,96826.91
2023-10-29T18:54:51.807Z,96828.52
2023-10-29T18:57:22.536Z,96829.05
2023-10-29T18:59:52.457Z,96834.86
2023-10-29T19:02:21.453Z,96843.15
2023-10-29T19:04:50.690Z,96850.66
2023-10-29T19:07:22.727Z,96854.36
2023-10-29T19:09:52.178Z,96857.38
2023-10-29T19:12:26.127Z,96856.20
2023-10-29T19:14:55.743Z,96863.48
2023-10-29T19:17:26.017Z,96863.39
2023-10-29T19:19:55.179Z,96865.63
2023-10-29T19:22:24.436Z,96866.33
2023-10-29T19:24:53.742Z,96868.71
2023-10-29T19:27:23.128Z,96879.89
2023-10-29T19:29:56.099Z,96883.65
2023-10-29T19:32:25.353Z,96884.46
2023-10-29T19:34:54.470Z,96887.73
2023-10-29T19:37:23.469Z,96891.23
2023-10-29T19:39:52.820Z,96883.02
2023-10-29T19:42:21.912Z,96882.88
2023-10-29T19:44:51.684Z,96881.48
2023-10-29T19:47:20.970Z,96881.71
2023-10-29T19:49:50.462Z,96883.89
2023-10-29T19:52:20.762Z,96888.39
2023-10-29T19:54:50.998Z,96885.23
2023-10-29T19:57:20.103Z,96883.61
2023-10-29T19:59:49.815Z,96887.02
2023-10-29T20:02:19.007Z,96893.45
2023-10-29T20:04:53.445Z,96892.53
2023-10-29T20:07:22.494Z,96902.51
2023-10-29T20:09:51.590Z,96918.73
2023-10-29T20:12:20.910Z,96921.34
2023-10-29T20:14:51.341Z,96928.16
2023-10-29T20:17:20.837Z,96918.13
2023-10-29T20:19:50.070Z,96919.60
2023-10-29T20:22:19.240Z,96924.51
2023-10-29T20:24:48.604Z,96935.91
2023-10-29T20:27:17.833Z,96929.75
2023-10-29T20:29:47.106Z,96935.67
2023-10-29T20:32:16.421Z,96957.57
2023-10-29T20:34:45.607Z,96965.27
2023-10-29T20:37:14.869Z,96974.09
2023-10-29T20:39:44.853Z,96979.80
2023-10-29T20:42:14.087Z,96976.45
2023-10-29T20:44:43.257Z,96982.41
2023-10-29T20:47:12.399Z,96983.30
2023-10-29T20:49:41.839Z,96967.97
2023-10-29T20:52:11.363Z,96970.59
2023-10-29T20:54:40.585Z,96971.95
2023-10-29T20:57:09.704Z,96975.08
2023-10-29T20:59:38.772Z,96988.52
2023-10-29T21:02:07.744Z,96989.64
2023-10-29T21:04:36.974Z,96987.52
2023-10-29T21:07:06.577Z,96986.15
2023-10-29T21:09:35.745Z,96987.35
2023-10-29T21:12:05.303Z,96984.05
2023-10-29T21:14:34.372Z,96982.52
2023-10-29T21:17:03.679Z,96983.48
2023-10-29T21:19:32.878Z,96994.04
2023-10-29T21:22:02.545Z,96996.94
2023-10-29T21:24:31.754Z,96994.55
2023-10-29T21:27:00.781Z,96999.74
2023-10-29T21:29:30.018Z,97003.01
2023-10-29T21:31:59.194Z,97015.88
2023-10-29T21:34:28.492Z,97019.41
2023-10-29T21:36:57.671Z,97025.80
2023-10-29T21:39:26.898Z,97037.20
2023-10-29T21:41:56.097Z,97041.62
2023-10-29T21:44:25.340Z,97043.08
2023-10-29T21:46:54.378Z,97044.67
2023-10-29T21:49:23.529Z,97039.89
2023-10-29T21:51:52.516Z,97031.52
2023-10-29T21:54:21.857Z,97033.16
2023-10-29T21:56:51.511Z,97026.42
2023-10-29T21:59:21.088Z,97034.78
2023-10-29T22:01:53.731Z,97037.04
2023-10-29T22:04:22.865Z,97041.85
2023-10-29T22:06:52.034Z,97055.13
2023-10-29T22:09:21.120Z,97050.72
2023-10-29T22:11:50.270Z,97045.18
2023-10-29T22:14:19.611Z,97040.92
2023-10-29T22:16:48.741Z,97040.46
2023-10-29T22:19:19.695Z,97040.46
2023-10-29T22:21:49.257Z,97034.23
2023-10-29T22:24:18.746Z,97033.19
2023-10-29T22:26:48.209Z,97027.44
2023-10-29T22:29:17.485Z,97032.61
2023-10-29T22:31:46.800Z,97031.42
2023-10-29T22:34:16.717Z,97036.17
2023-10-29T22:36:45.892Z,97039.16
2023-10-29T22:39:15.201Z,97029.60
2023-10-29T22:41:44.369Z,97026.06
2023-10-29T22:44:13.442Z,97032.94
2023-10-29T22:46:43.202Z,97046.23
2023-10-29T22:49:14.673Z,97051.27
2023-10-29T22:51:43.712Z,97047.92
2023-10-29T22:54:13.685Z,97054.66
2023-10-29T22:56:42.746Z,97052.12
2023-10-29T22:59:11.720Z,97049.27
2023-10-29T23:01:40.719Z,97059.02
2023-10-29T23:04:09.800Z,97079.27
2023-10-29T23:06:38.876Z,97085.19
2023-10-29T23:09:09.040Z,97079.70
2023-10-29T23:11:38.241Z,97091.68
2023-10-29T23:14:07.491Z,97099.14
2023-10-29T23:16:36.585Z,97104.73
2023-10-29T23:19:05.382Z,97105.36
2023-10-29T23:21:34.711Z,97108.77
2023-10-29T23:24:03.901Z,97107.54
2023-10-29T23:26:33.261Z,97109.04
2023-10-29T23:29:02.442Z,97113.88
2023-10-29T23:31:31.711Z,97110.15
2023-10-29T23:34:00.859Z,97109.20
2023-10-29T23:36:29.874Z,97120.56
2023-10-29T23:38:59.126Z,97129.98
2023-10-29T23:41:28.044Z,97129.73
2023-10-29T23:43:57.160Z,97137.48
2023-10-29T23:46:26.285Z,97136.93
2023-10-29T23:48:55.262Z,97137.48
2023-10-29T23:51:24.632Z,97129.55
2023-10-29T23:53:54.751Z,97115.62
2023-10-29T23:56:23.732Z,97109.09
2023-10-29T23:58:52.900Z,97103.30
